Cardiff International Airport (CWL/EGFF)



No chart available
Flight Aircraft Arriving
CPX993
EGNX - East Midlands Airport
United Kingdom Derby, United Kingdom
Flight Aircraft Departing
CPX992
EGNX - East Midlands Airport
United Kingdom Derby, United Kingdom


Airport Information
Location: Cardiff,
Coordinates: 51.3967 / -3.34333
Field Elevation: 220ft
Longest Runway: 7,704ft
ILS Approaches: YES
Landing Fees: $535 per flight
Jet A Price: $0.70/lbs

Current Weather
METAR: EGFF 272220Z AUTO 31005KT 9999 NCD 09/05 Q1028
TAF: TAF EGFF 271658Z 2718/2818 29013KT 9999 FEW038 BECMG 2720/2723 01005KT

Recent Arrivals
Date Flight Type Depart
05/15/2022 CPX992 B738 East Midlands Airport (EGNX)
01/19/2022 CPX992 B738 East Midlands Airport (EGNX)
Recent Departures
Date Flight Type Arrive
05/15/2022 CPX993 B738 East Midlands Airport (EGNX)
01/19/2022 CPX993 B738 East Midlands Airport (EGNX)